Time;durP1;ratioP1;P1;durP2;ratioP2;P2;SDS_P1;SDS_P2;PMS_P1;PMS_P2;Temp;Humidity;BMP_temperature;BMP_pressure;BME280_temperature;BME280_humidity;BME280_pressure;Samples;Min_cycle;Max_cycle;Signal;HPM_P1;HPM_P2
2021/03/23 00:06:21;;;;;;;25.25;15.00;;;;;;;0.73;58.61;99639.64;469554;1173;114091;-65
2021/03/23 00:16:34;;;;;;;29.03;13.07;;;;;;;0.69;58.77;99634.55;469640;1172;113938;-65
2021/03/23 00:26:39;;;;;;;24.00;15.03;;;;;;;0.67;59.64;99644.05;470485;1173;114076;-66
2021/03/23 00:36:43;;;;;;;23.53;13.47;;;;;;;0.71;60.00;99639.67;470927;1171;114630;-67
2021/03/23 00:46:46;;;;;;;21.93;12.00;;;;;;;0.73;59.73;99637.06;469934;1172;114524;-64
2021/03/23 00:56:50;;;;;;;23.50;12.97;;;;;;;0.75;59.82;99638.73;472535;1174;114701;-66
2021/03/23 01:06:54;;;;;;;27.20;14.10;;;;;;;0.69;59.53;99624.22;470602;1173;114760;-65
2021/03/23 01:16:58;;;;;;;24.23;12.70;;;;;;;0.69;59.88;99636.27;469980;1172;114200;-66
2021/03/23 01:27:02;;;;;;;22.73;12.33;;;;;;;0.66;60.70;99633.77;470495;1172;114691;-66
2021/03/23 01:37:07;;;;;;;18.75;11.35;;;;;;;0.64;60.25;99636.38;470859;1171;115315;-66
2021/03/23 01:47:12;;;;;;;21.65;12.45;;;;;;;0.66;60.36;99631.19;470154;1174;114563;-65
2021/03/23 01:57:16;;;;;;;22.45;11.35;;;;;;;0.65;60.66;99635.48;470297;1174;115394;-65
2021/03/23 02:07:20;;;;;;;22.17;11.63;;;;;;;0.67;60.97;99632.88;470214;1172;115129;-66
2021/03/23 02:17:28;;;;;;;23.05;12.35;;;;;;;0.64;61.10;99630.38;470211;1172;114388;-65
2021/03/23 02:27:33;;;;;;;17.80;10.20;;;;;;;0.62;61.59;99626.95;470678;1174;113874;-65
2021/03/23 02:37:37;;;;;;;24.33;11.97;;;;;;;0.62;61.43;99629.53;470386;1173;115279;-66
2021/03/23 02:47:41;;;;;;;20.90;11.30;;;;;;;0.60;61.53;99628.72;469890;1174;114082;-66
2021/03/23 02:57:44;;;;;;;23.10;12.30;;;;;;;0.45;61.74;99633.35;469897;1172;113693;-63
2021/03/23 03:07:48;;;;;;;19.37;12.00;;;;;;;0.25;62.12;99639.78;469836;1173;114063;-66
2021/03/23 03:17:52;;;;;;;17.28;9.93;;;;;;;0.05;61.50;99644.50;469808;1173;113622;-65
2021/03/23 03:27:56;;;;;;;16.70;9.87;;;;;;;-0.06;61.88;99634.40;470023;1171;113921;-66
2021/03/23 03:38:01;;;;;;;23.05;13.10;;;;;;;-0.17;62.43;99632.04;469824;1170;114644;-66
2021/03/23 03:48:07;;;;;;;20.37;10.73;;;;;;;-0.36;63.25;99629.79;470466;1172;113814;-67
2021/03/23 03:58:10;;;;;;;23.83;13.50;;;;;;;-0.58;63.57;99632.75;470227;1174;114261;-65
2021/03/23 04:08:22;;;;;;;21.03;14.07;;;;;;;-0.76;64.14;99628.77;469926;1173;114553;-65
2021/03/23 04:18:28;;;;;;;20.50;12.10;;;;;;;-0.87;64.37;99636.66;470089;1171;114473;-66
2021/03/23 04:28:32;;;;;;;23.37;12.87;;;;;;;-1.02;64.66;99645.52;470002;1173;114285;-65
2021/03/23 04:38:38;;;;;;;25.87;15.03;;;;;;;-1.15;65.33;99641.44;470242;1172;114275;-65
2021/03/23 04:48:41;;;;;;;23.93;14.73;;;;;;;-1.31;65.99;99646.79;470242;1173;114513;-65
2021/03/23 04:58:45;;;;;;;28.50;15.77;;;;;;;-1.47;66.32;99651.30;470048;1172;114393;-66
2021/03/23 05:08:49;;;;;;;23.03;14.40;;;;;;;-1.40;66.61;99644.34;470583;1173;114001;-65
2021/03/23 05:18:53;;;;;;;28.25;15.45;;;;;;;-1.13;66.93;99649.98;470375;1173;114689;-66
2021/03/23 05:28:58;;;;;;;22.73;13.73;;;;;;;-0.59;66.36;99649.11;470097;1173;113792;-66
2021/03/23 05:39:01;;;;;;;27.80;16.15;;;;;;;0.71;66.96;99657.77;469921;1171;114603;-65
2021/03/23 05:49:31;;;;;;;28.75;16.65;;;;;;;8.02;60.93;99658.67;469679;1172;114025;-66
2021/03/23 05:59:42;;;;;;;25.65;15.95;;;;;;;13.83;53.06;99655.09;469936;1173;114344;-66
2021/03/23 06:09:47;;;;;;;27.83;16.20;;;;;;;16.78;46.42;99646.78;469898;1173;114063;-65
2021/03/23 06:19:57;;;;;;;26.30;16.25;;;;;;;20.32;42.71;99645.04;470141;1172;114960;-66
2021/03/23 06:30:21;;;;;;;19.07;14.50;;;;;;;22.92;39.02;99637.22;469939;1173;114485;-66
2021/03/23 06:40:30;;;;;;;16.30;12.10;;;;;;;23.60;34.02;99643.70;470608;1172;114181;-64
2021/03/23 06:50:36;;;;;;;16.27;11.47;;;;;;;23.19;32.99;99643.03;470312;1174;114484;-66
2021/03/23 07:00:40;;;;;;;15.57;10.87;;;;;;;22.97;31.75;99655.44;470043;1173;114871;-66
2021/03/23 07:11:01;;;;;;;13.10;9.10;;;;;;;21.56;30.77;99658.57;470049;1171;115396;-66
2021/03/23 07:21:12;;;;;;;11.95;8.35;;;;;;;24.18;29.32;99652.00;469440;1172;114568;-65
2021/03/23 07:31:21;;;;;;;12.33;10.77;;;;;;;25.48;28.81;99663.90;472028;1171;114393;-66
2021/03/23 07:41:30;;;;;;;11.30;8.90;;;;;;;23.23;27.75;99660.41;470066;1172;115361;-66
2021/03/23 07:51:37;;;;;;;12.50;9.80;;;;;;;23.48;27.71;99667.44;470290;1173;113965;-66
2021/03/23 08:01:48;;;;;;;10.53;8.40;;;;;;;23.06;26.20;99675.76;470757;1172;113977;-64
2021/03/23 08:12:02;;;;;;;8.23;7.40;;;;;;;23.01;27.00;99671.95;470518;1173;114005;-63
2021/03/23 08:22:50;;;;;;;8.35;7.40;;;;;;;25.69;27.33;99697.18;469996;1173;113909;-63
2021/03/23 08:33:02;;;;;;;8.60;7.13;;;;;;;26.13;26.34;99700.56;470012;1173;114535;-65
2021/03/23 08:43:11;;;;;;;9.13;8.20;;;;;;;26.88;25.46;99710.68;471018;1173;114117;-65
2021/03/23 08:53:56;;;;;;;11.68;8.25;;;;;;;25.39;25.02;99713.44;470298;1174;113788;-69
2021/03/23 09:04:27;;;;;;;8.77;6.97;;;;;;;17.53;28.94;99719.76;470165;1173;114216;-63
2021/03/23 09:14:33;;;;;;;8.07;6.50;;;;;;;14.26;32.64;99707.22;470098;1174;114190;-67
2021/03/23 09:24:39;;;;;;;11.85;7.45;;;;;;;12.15;36.26;99718.03;470352;1171;114499;-61
2021/03/23 09:35:22;;;;;;;12.77;9.23;;;;;;;11.05;39.16;99723.43;462282;1173;10001557;-62
2021/03/23 09:45:34;;;;;;;11.47;8.27;;;;;;;9.98;41.14;99718.61;469513;1174;114579;-62
2021/03/23 09:55:39;;;;;;;10.67;6.20;;;;;;;9.62;42.34;99707.56;469940;1173;115016;-63
2021/03/23 10:05:43;;;;;;;15.95;8.45;;;;;;;9.35;43.75;99708.23;470012;1173;113777;-64
2021/03/23 10:15:47;;;;;;;9.80;6.33;;;;;;;9.20;43.99;99725.66;469397;1173;114132;-63
2021/03/23 10:25:51;;;;;;;10.17;5.97;;;;;;;9.11;44.71;99719.17;470609;1173;113644;-62
2021/03/23 10:35:57;;;;;;;11.50;6.23;;;;;;;8.90;45.34;99724.66;470069;1171;114475;-62
2021/03/23 10:46:24;;;;;;;10.23;6.60;;;;;;;8.96;46.11;99721.72;470293;1173;113849;-64
2021/03/23 10:56:32;;;;;;;7.00;4.80;;;;;;;9.61;45.86;99734.71;469981;1173;113829;-62
2021/03/23 11:06:37;;;;;;;5.87;5.10;;;;;;;10.35;44.88;99732.13;470091;1172;113952;-62
2021/03/23 11:16:44;;;;;;;10.77;5.40;;;;;;;10.44;43.46;99739.48;470217;1171;114252;-62
2021/03/23 11:26:48;;;;;;;7.63;5.10;;;;;;;10.02;44.31;99738.47;469827;1171;115165;-63
2021/03/23 11:36:52;;;;;;;10.63;4.30;;;;;;;10.24;44.30;99733.62;469641;1171;114477;-62
2021/03/23 11:47:04;;;;;;;7.20;5.20;;;;;;;9.62;44.48;99744.27;469628;1173;114246;-62
2021/03/23 11:57:11;;;;;;;9.00;7.03;;;;;;;9.52;45.09;99744.81;469862;1173;115014;-61
2021/03/23 12:07:40;;;;;;;15.30;7.50;;;;;;;9.53;46.18;99749.13;469925;1172;114063;-61
2021/03/23 12:17:50;;;;;;;10.07;6.60;;;;;;;9.28;46.31;99751.42;469518;1172;115108;-61
2021/03/23 12:27:54;;;;;;;13.70;6.47;;;;;;;9.10;46.75;99752.36;469585;1171;113961;-64
2021/03/23 12:38:02;;;;;;;13.85;6.10;;;;;;;8.99;47.50;99748.66;469744;1174;113780;-64
2021/03/23 12:48:09;;;;;;;8.00;5.57;;;;;;;8.87;48.37;99747.55;469692;1173;113933;-64
2021/03/23 12:58:16;;;;;;;10.70;7.30;;;;;;;9.41;47.86;99762.08;469899;1171;115126;-64
2021/03/23 13:08:25;;;;;;;9.80;5.53;;;;;;;9.73;46.80;99764.64;469625;1173;114400;-64
2021/03/23 13:18:31;;;;;;;12.10;6.23;;;;;;;9.45;47.18;99760.95;470087;1173;114452;-63
2021/03/23 13:28:45;;;;;;;12.00;6.50;;;;;;;9.45;47.16;99769.67;469933;1173;113886;-65
2021/03/23 13:38:49;;;;;;;10.83;5.33;;;;;;;9.43;47.12;99763.69;469612;1171;114144;-64
2021/03/23 13:48:53;;;;;;;11.00;5.40;;;;;;;9.76;46.98;99754.82;469639;1174;113694;-64
2021/03/23 13:58:57;;;;;;;8.03;5.60;;;;;;;9.86;46.12;99749.02;469565;1171;115122;-65
2021/03/23 14:09:03;;;;;;;10.30;7.20;;;;;;;9.90;46.44;99755.79;469510;1171;113678;-69
2021/03/23 14:19:07;;;;;;;9.30;7.57;;;;;;;9.78;46.17;99752.95;469447;1173;114193;-69
2021/03/23 14:29:11;;;;;;;13.25;7.35;;;;;;;9.63;46.42;99752.05;469652;1172;114068;-69
2021/03/23 14:39:27;;;;;;;11.63;6.00;;;;;;;9.41;46.66;99747.20;470044;1173;114611;-70
2021/03/23 14:49:31;;;;;;;7.80;6.45;;;;;;;9.31;47.11;99748.66;470528;1174;113901;-70
2021/03/23 14:59:45;;;;;;;9.15;6.50;;;;;;;9.11;47.35;99753.22;470109;1173;113784;-70
2021/03/23 15:09:49;;;;;;;10.95;6.75;;;;;;;9.04;47.99;99757.10;470177;1173;114419;-70
2021/03/23 15:19:53;;;;;;;9.30;6.00;;;;;;;8.95;48.41;99767.17;470024;1174;114169;-70
2021/03/23 15:29:57;;;;;;;9.25;6.20;;;;;;;8.49;48.64;99761.76;470209;1173;113619;-71
2021/03/23 15:40:09;;;;;;;9.35;6.38;;;;;;;8.12;49.32;99778.41;470301;1171;113781;-61
2021/03/23 15:50:16;;;;;;;9.07;5.90;;;;;;;8.14;49.61;99773.11;470551;1171;113908;-61
2021/03/23 16:00:25;;;;;;;8.37;6.93;;;;;;;7.99;50.33;99780.82;470569;1173;114266;-64
2021/03/23 16:10:28;;;;;;;8.10;5.47;;;;;;;7.88;50.88;99777.03;470684;1173;113695;-60
2021/03/23 16:20:32;;;;;;;9.00;7.87;;;;;;;7.70;51.52;99796.17;470282;1173;113435;-61
2021/03/23 16:30:36;;;;;;;10.50;6.57;;;;;;;7.58;52.03;99801.99;470425;1173;113496;-61
2021/03/23 16:40:41;;;;;;;8.37;7.40;;;;;;;7.47;52.31;99805.13;470026;1173;113550;-62
2021/03/23 16:50:49;;;;;;;12.17;6.07;;;;;;;7.32;53.06;99814.54;470104;1173;113694;-61
2021/03/23 17:00:58;;;;;;;11.00;5.95;;;;;;;7.15;54.20;99823.98;472156;1169;114034;-64
2021/03/23 17:11:04;;;;;;;9.60;5.93;;;;;;;7.01;55.52;99831.62;472029;1168;113486;-61
2021/03/23 17:21:08;;;;;;;7.73;6.43;;;;;;;6.85;55.55;99840.15;472053;1168;114053;-61
2021/03/23 17:31:13;;;;;;;10.40;6.45;;;;;;;6.75;56.96;99848.44;472243;1169;113439;-62
2021/03/23 17:41:17;;;;;;;6.23;5.50;;;;;;;6.62;57.66;99863.80;472245;1169;116074;-66
2021/03/23 17:51:21;;;;;;;7.70;6.25;;;;;;;6.47;57.48;99871.38;456464;1168;20002265;-66
2021/03/23 18:01:24;;;;;;;9.27;6.73;;;;;;;6.36;58.39;99887.47;472020;1168;114597;-64
2021/03/23 18:11:29;;;;;;;10.80;6.97;;;;;;;6.26;58.59;99893.98;471780;1168;113624;-64
2021/03/23 18:21:33;;;;;;;12.47;7.67;;;;;;;6.15;59.74;99889.22;472429;1168;113625;-64
2021/03/23 18:31:40;;;;;;;7.57;5.53;;;;;;;6.06;60.73;99895.66;471905;1168;114072;-64
2021/03/23 18:41:45;;;;;;;8.40;6.57;;;;;;;5.95;60.69;99926.49;471657;1168;114264;-64
2021/03/23 18:51:48;;;;;;;8.35;6.20;;;;;;;5.86;61.24;99928.54;471640;1170;113897;-65
2021/03/23 19:01:52;;;;;;;7.77;5.70;;;;;;;5.77;62.16;99931.50;471867;1168;113890;-64
2021/03/23 19:11:57;;;;;;;7.80;6.00;;;;;;;5.69;62.77;99933.55;471716;1169;113580;-62
2021/03/23 19:22:01;;;;;;;12.43;6.97;;;;;;;5.59;62.48;99952.13;471527;1168;113687;-59
2021/03/23 19:32:07;;;;;;;11.13;6.07;;;;;;;5.53;62.94;99960.19;471857;1168;114151;-59
2021/03/23 19:42:12;;;;;;;8.57;5.33;;;;;;;5.45;62.92;99970.03;472403;1168;113637;-60
2021/03/23 19:52:15;;;;;;;13.15;7.05;;;;;;;5.39;63.73;99976.31;472578;1168;113789;-59
2021/03/23 20:02:20;;;;;;;10.95;6.25;;;;;;;5.34;63.58;99983.45;472595;1168;114602;-59
2021/03/23 20:12:25;;;;;;;11.60;4.90;;;;;;;5.24;63.60;100005.52;471773;1168;113891;-65
2021/03/23 20:22:28;;;;;;;9.50;6.30;;;;;;;5.21;63.69;100013.44;471895;1170;114497;-65
2021/03/23 20:32:33;;;;;;;11.80;5.90;;;;;;;5.11;64.48;100023.30;472048;1168;114019;-66
2021/03/23 20:42:37;;;;;;;12.30;7.20;;;;;;;4.96;64.18;100022.06;472032;1169;114677;-66
2021/03/23 20:52:42;;;;;;;9.37;5.53;;;;;;;4.87;64.30;100033.64;471998;1168;114221;-66
2021/03/23 21:02:46;;;;;;;9.10;5.73;;;;;;;4.80;64.46;100034.77;472037;1168;113753;-66
2021/03/23 21:12:50;;;;;;;9.20;5.40;;;;;;;4.73;64.94;100034.95;472570;1168;113625;-66
2021/03/23 21:22:55;;;;;;;11.35;6.55;;;;;;;4.69;64.99;100048.11;472494;1168;113601;-66
2021/03/23 21:32:59;;;;;;;8.27;5.57;;;;;;;4.58;65.72;100049.30;472061;1168;113786;-65
2021/03/23 21:43:05;;;;;;;8.93;5.57;;;;;;;4.55;66.07;100041.61;472673;1168;115070;-64
2021/03/23 21:53:15;;;;;;;9.27;6.43;;;;;;;4.49;65.75;100042.66;471860;1170;114031;-69
2021/03/23 22:03:22;;;;;;;9.13;5.87;;;;;;;4.44;65.99;100038.50;471835;1170;115025;-64
2021/03/23 22:13:27;;;;;;;11.53;6.67;;;;;;;4.43;66.29;100047.20;472900;1168;113709;-66
2021/03/23 22:23:31;;;;;;;11.03;6.67;;;;;;;4.40;65.98;100065.50;472216;1169;113908;-65
2021/03/23 22:33:35;;;;;;;10.55;7.10;;;;;;;4.33;66.16;100068.28;471432;1170;114336;-67
2021/03/23 22:43:40;;;;;;;9.97;5.93;;;;;;;4.37;66.17;100061.24;472635;1168;170162;-66
2021/03/23 22:53:44;;;;;;;9.37;6.43;;;;;;;4.31;66.39;100069.21;472609;1168;113742;-65
2021/03/23 23:03:48;;;;;;;12.25;8.65;;;;;;;4.23;66.19;100066.85;472611;1168;114459;-66
2021/03/23 23:13:53;;;;;;;16.37;9.77;;;;;;;4.18;66.23;100079.16;471780;1168;113950;-65
2021/03/23 23:23:59;;;;;;;13.53;7.57;;;;;;;4.19;66.56;100084.28;471966;1168;113810;-65
2021/03/23 23:34:04;;;;;;;11.70;8.07;;;;;;;4.15;66.64;100082.69;471645;1168;113898;-63
2021/03/23 23:44:08;;;;;;;10.75;7.75;;;;;;;4.07;66.62;100089.84;472248;1168;114468;-64
2021/03/23 23:54:13;;;;;;;16.00;9.60;;;;;;;4.07;66.86;100087.25;473215;1168;114132;-65
